sensor_id;sensor_type;location;lat;lon;timestamp;pressure;altitude;pressure_sealevel;temperature;humidity
3960;BME280;1994;48.640;8.894;2023-12-07T00:01:54;96393.78;;;2.55;93.64
3960;BME280;1994;48.640;8.894;2023-12-07T00:04:20;96397.31;;;2.54;93.66
3960;BME280;1994;48.640;8.894;2023-12-07T00:06:46;96398.38;;;2.45;93.47
3960;BME280;1994;48.640;8.894;2023-12-07T00:09:12;96399.19;;;2.45;93.80
3960;BME280;1994;48.640;8.894;2023-12-07T00:11:37;96394.44;;;2.42;93.33
3960;BME280;1994;48.640;8.894;2023-12-07T00:14:03;96400.00;;;2.46;93.29
3960;BME280;1994;48.640;8.894;2023-12-07T00:16:29;96419.03;;;2.58;93.02
3960;BME280;1994;48.640;8.894;2023-12-07T00:18:55;96414.88;;;2.57;92.65
3960;BME280;1994;48.640;8.894;2023-12-07T00:21:21;96405.97;;;2.53;92.60
3960;BME280;1994;48.640;8.894;2023-12-07T00:23:46;96407.81;;;2.44;93.33
3960;BME280;1994;48.640;8.894;2023-12-07T00:26:12;96411.16;;;2.45;93.63
3960;BME280;1994;48.640;8.894;2023-12-07T00:28:38;96401.63;;;2.39;93.89
3960;BME280;1994;48.640;8.894;2023-12-07T00:31:04;96410.22;;;2.46;93.84
3960;BME280;1994;48.640;8.894;2023-12-07T00:33:30;96402.63;;;2.38;93.79
3960;BME280;1994;48.640;8.894;2023-12-07T00:35:55;96409.50;;;2.52;93.99
3960;BME280;1994;48.640;8.894;2023-12-07T00:38:21;96410.75;;;2.56;93.58
3960;BME280;1994;48.640;8.894;2023-12-07T00:40:48;96417.44;;;2.57;93.82
3960;BME280;1994;48.640;8.894;2023-12-07T00:43:13;96409.50;;;2.52;93.28
3960;BME280;1994;48.640;8.894;2023-12-07T00:45:39;96415.75;;;2.49;92.96
3960;BME280;1994;48.640;8.894;2023-12-07T00:48:05;96421.47;;;2.66;92.97
3960;BME280;1994;48.640;8.894;2023-12-07T00:50:31;96416.03;;;2.69;92.17
3960;BME280;1994;48.640;8.894;2023-12-07T00:52:56;96411.50;;;2.71;92.10
3960;BME280;1994;48.640;8.894;2023-12-07T00:55:22;96409.75;;;2.71;92.23
3960;BME280;1994;48.640;8.894;2023-12-07T00:57:48;96408.88;;;2.64;91.64
3960;BME280;1994;48.640;8.894;2023-12-07T01:00:14;96418.31;;;2.64;91.78
3960;BME280;1994;48.640;8.894;2023-12-07T01:02:41;96414.50;;;2.74;91.71
3960;BME280;1994;48.640;8.894;2023-12-07T01:05:07;96416.28;;;2.74;91.89
3960;BME280;1994;48.640;8.894;2023-12-07T01:07:34;96413.19;;;2.64;91.91
3960;BME280;1994;48.640;8.894;2023-12-07T01:10:00;96429.41;;;2.71;91.65
3960;BME280;1994;48.640;8.894;2023-12-07T01:12:25;96424.66;;;2.68;91.71
3960;BME280;1994;48.640;8.894;2023-12-07T01:14:51;96420.69;;;2.65;91.87
3960;BME280;1994;48.640;8.894;2023-12-07T01:17:17;96421.13;;;2.69;91.72
3960;BME280;1994;48.640;8.894;2023-12-07T01:19:43;96413.72;;;2.74;91.67
3960;BME280;1994;48.640;8.894;2023-12-07T01:22:09;96418.81;;;2.45;92.52
3960;BME280;1994;48.640;8.894;2023-12-07T01:24:34;96413.28;;;2.27;94.10
3960;BME280;1994;48.640;8.894;2023-12-07T01:27:00;96414.66;;;2.15;95.49
3960;BME280;1994;48.640;8.894;2023-12-07T01:29:26;96423.84;;;2.24;95.81
3960;BME280;1994;48.640;8.894;2023-12-07T01:31:52;96447.03;;;2.37;95.19
3960;BME280;1994;48.640;8.894;2023-12-07T01:34:18;96447.84;;;2.37;95.95
3960;BME280;1994;48.640;8.894;2023-12-07T01:36:44;96448.63;;;2.38;95.27
3960;BME280;1994;48.640;8.894;2023-12-07T01:39:10;96445.19;;;2.45;95.18
3960;BME280;1994;48.640;8.894;2023-12-07T01:41:39;96463.91;;;2.46;94.75
3960;BME280;1994;48.640;8.894;2023-12-07T01:44:05;96457.44;;;2.50;94.84
3960;BME280;1994;48.640;8.894;2023-12-07T01:46:32;96459.72;;;2.45;94.90
3960;BME280;1994;48.640;8.894;2023-12-07T01:49:01;96456.22;;;2.46;94.89
3960;BME280;1994;48.640;8.894;2023-12-07T01:51:27;96454.63;;;2.45;94.80
3960;BME280;1994;48.640;8.894;2023-12-07T01:53:54;96458.69;;;2.54;94.47
3960;BME280;1994;48.640;8.894;2023-12-07T01:56:20;96447.75;;;2.31;94.51
3960;BME280;1994;48.640;8.894;2023-12-07T01:58:47;96450.75;;;2.34;94.39
3960;BME280;1994;48.640;8.894;2023-12-07T02:01:13;96460.44;;;2.39;94.47
3960;BME280;1994;48.640;8.894;2023-12-07T02:03:40;96460.09;;;2.42;94.15
3960;BME280;1994;48.640;8.894;2023-12-07T02:06:06;96469.00;;;2.46;94.11
3960;BME280;1994;48.640;8.894;2023-12-07T02:08:35;96464.94;;;2.37;94.38
3960;BME280;1994;48.640;8.894;2023-12-07T02:11:01;96455.41;;;2.31;94.45
3960;BME280;1994;48.640;8.894;2023-12-07T02:13:27;96457.25;;;2.37;94.58
3960;BME280;1994;48.640;8.894;2023-12-07T02:15:56;96451.13;;;2.46;94.11
3960;BME280;1994;48.640;8.894;2023-12-07T02:18:58;96449.16;;;2.48;94.70
3960;BME280;1994;48.640;8.894;2023-12-07T02:24:27;96446.06;;;2.38;94.62
3960;BME280;1994;48.640;8.894;2023-12-07T02:26:54;96452.84;;;2.31;94.44
3960;BME280;1994;48.640;8.894;2023-12-07T02:29:20;96446.84;;;2.24;94.71
3960;BME280;1994;48.640;8.894;2023-12-07T02:31:46;96448.88;;;2.28;94.84
3960;BME280;1994;48.640;8.894;2023-12-07T02:34:12;96443.25;;;2.33;94.58
3960;BME280;1994;48.640;8.894;2023-12-07T02:36:39;96442.97;;;2.28;94.84
3960;BME280;1994;48.640;8.894;2023-12-07T02:39:06;96449.75;;;2.21;95.26
3960;BME280;1994;48.640;8.894;2023-12-07T02:41:35;96444.03;;;2.19;95.10
3960;BME280;1994;48.640;8.894;2023-12-07T02:44:02;96438.63;;;2.14;95.17
3960;BME280;1994;48.640;8.894;2023-12-07T02:46:29;96447.88;;;2.15;95.20
3960;BME280;1994;48.640;8.894;2023-12-07T02:48:54;96434.50;;;2.13;95.34
3960;BME280;1994;48.640;8.894;2023-12-07T02:51:22;96441.81;;;2.16;95.31
3960;BME280;1994;48.640;8.894;2023-12-07T02:53:48;96434.50;;;2.13;95.49
3960;BME280;1994;48.640;8.894;2023-12-07T02:56:13;96436.09;;;2.14;95.43
3960;BME280;1994;48.640;8.894;2023-12-07T02:58:39;96446.63;;;2.11;95.25
3960;BME280;1994;48.640;8.894;2023-12-07T03:01:05;96450.16;;;2.10;95.34
3960;BME280;1994;48.640;8.894;2023-12-07T03:03:31;96450.16;;;2.10;95.38
3960;BME280;1994;48.640;8.894;2023-12-07T03:05:56;96451.13;;;2.09;95.33
3960;BME280;1994;48.640;8.894;2023-12-07T03:08:22;96458.25;;;1.99;95.54
3960;BME280;1994;48.640;8.894;2023-12-07T03:10:48;96451.59;;;1.90;95.69
3960;BME280;1994;48.640;8.894;2023-12-07T03:13:14;96453.25;;;1.83;95.74
3960;BME280;1994;48.640;8.894;2023-12-07T03:15:39;96448.72;;;1.70;96.57
3960;BME280;1994;48.640;8.894;2023-12-07T03:18:05;96450.44;;;1.78;96.39
3960;BME280;1994;48.640;8.894;2023-12-07T03:20:31;96452.97;;;1.78;96.28
3960;BME280;1994;48.640;8.894;2023-12-07T03:22:57;96463.03;;;1.79;96.41
3960;BME280;1994;48.640;8.894;2023-12-07T03:25:23;96455.88;;;1.75;96.52
3960;BME280;1994;48.640;8.894;2023-12-07T03:27:48;96457.81;;;1.73;96.58
3960;BME280;1994;48.640;8.894;2023-12-07T03:30:14;96463.84;;;1.80;96.34
3960;BME280;1994;48.640;8.894;2023-12-07T03:32:40;96464.16;;;1.77;96.27
3960;BME280;1994;48.640;8.894;2023-12-07T03:35:06;96465.63;;;1.71;96.59
3960;BME280;1994;48.640;8.894;2023-12-07T03:37:32;96465.16;;;1.68;96.54
3960;BME280;1994;48.640;8.894;2023-12-07T03:39:58;96461.69;;;1.69;96.47
3960;BME280;1994;48.640;8.894;2023-12-07T03:42:24;96473.81;;;1.67;96.48
3960;BME280;1994;48.640;8.894;2023-12-07T03:44:49;96470.97;;;1.62;96.48
3960;BME280;1994;48.640;8.894;2023-12-07T03:47:17;96474.47;;;1.61;96.57
3960;BME280;1994;48.640;8.894;2023-12-07T03:49:44;96472.44;;;1.56;96.90
3960;BME280;1994;48.640;8.894;2023-12-07T03:52:10;96471.03;;;1.54;97.07
3960;BME280;1994;48.640;8.894;2023-12-07T03:54:36;96472.00;;;1.53;96.99
3960;BME280;1994;48.640;8.894;2023-12-07T03:57:04;96482.66;;;1.56;96.76
3960;BME280;1994;48.640;8.894;2023-12-07T03:59:30;96480.44;;;1.53;96.71
3960;BME280;1994;48.640;8.894;2023-12-07T04:01:56;96479.84;;;1.43;96.96
3960;BME280;1994;48.640;8.894;2023-12-07T04:04:22;96475.72;;;1.42;97.05
3960;BME280;1994;48.640;8.894;2023-12-07T04:06:47;96479.19;;;1.19;98.10
3960;BME280;1994;48.640;8.894;2023-12-07T04:09:13;96477.88;;;1.31;97.57
3960;BME280;1994;48.640;8.894;2023-12-07T04:11:39;96484.78;;;1.45;98.71
3960;BME280;1994;48.640;8.894;2023-12-07T04:14:05;96487.88;;;1.63;98.83
3960;BME280;1994;48.640;8.894;2023-12-07T04:16:30;96483.13;;;1.82;99.32
3960;BME280;1994;48.640;8.894;2023-12-07T04:18:56;96484.81;;;1.90;98.68
3960;BME280;1994;48.640;8.894;2023-12-07T04:21:22;96482.25;;;1.90;98.06
3960;BME280;1994;48.640;8.894;2023-12-07T04:23:47;96488.00;;;1.92;97.58
3960;BME280;1994;48.640;8.894;2023-12-07T04:26:13;96485.28;;;1.93;97.17
3960;BME280;1994;48.640;8.894;2023-12-07T04:28:41;96487.44;;;1.82;95.55
3960;BME280;1994;48.640;8.894;2023-12-07T04:31:06;96492.97;;;1.63;95.01
3960;BME280;1994;48.640;8.894;2023-12-07T04:33:32;96497.53;;;1.53;95.00
3960;BME280;1994;48.640;8.894;2023-12-07T04:35:58;96486.72;;;1.43;95.13
3960;BME280;1994;48.640;8.894;2023-12-07T04:38:24;96487.41;;;1.37;95.44
3960;BME280;1994;48.640;8.894;2023-12-07T04:40:49;96490.66;;;1.23;95.85
3960;BME280;1994;48.640;8.894;2023-12-07T04:43:15;96477.03;;;1.00;96.50
3960;BME280;1994;48.640;8.894;2023-12-07T04:45:41;96478.69;;;0.93;97.07
3960;BME280;1994;48.640;8.894;2023-12-07T04:48:07;96485.34;;;0.94;97.31
3960;BME280;1994;48.640;8.894;2023-12-07T04:50:33;96481.50;;;0.98;97.29
3960;BME280;1994;48.640;8.894;2023-12-07T04:52:58;96483.94;;;0.91;97.13
3960;BME280;1994;48.640;8.894;2023-12-07T04:55:24;96486.03;;;0.88;98.04
3960;BME280;1994;48.640;8.894;2023-12-07T04:57:50;96483.00;;;0.84;98.38
3960;BME280;1994;48.640;8.894;2023-12-07T05:00:16;96478.03;;;0.91;98.30
3960;BME280;1994;48.640;8.894;2023-12-07T05:02:42;96471.81;;;0.93;98.21
3960;BME280;1994;48.640;8.894;2023-12-07T05:05:08;96478.31;;;0.96;98.28
3960;BME280;1994;48.640;8.894;2023-12-07T05:07:34;96485.34;;;0.94;98.53
3960;BME280;1994;48.640;8.894;2023-12-07T05:10:00;96483.44;;;0.96;98.76
3960;BME280;1994;48.640;8.894;2023-12-07T05:12:25;96487.25;;;0.92;98.75
3960;BME280;1994;48.640;8.894;2023-12-07T05:14:51;96485.00;;;0.97;98.18
3960;BME280;1994;48.640;8.894;2023-12-07T05:17:18;96493.63;;;0.96;98.53
3960;BME280;1994;48.640;8.894;2023-12-07T05:19:44;96495.72;;;0.92;98.63
3960;BME280;1994;48.640;8.894;2023-12-07T05:22:10;96489.19;;;0.90;98.58
3960;BME280;1994;48.640;8.894;2023-12-07T05:24:36;96499.41;;;0.90;98.53
3960;BME280;1994;48.640;8.894;2023-12-07T05:27:02;96500.19;;;0.90;98.49
3960;BME280;1994;48.640;8.894;2023-12-07T05:29:29;96492.72;;;0.89;98.47
3960;BME280;1994;48.640;8.894;2023-12-07T05:31:55;96486.97;;;0.87;98.33
3960;BME280;1994;48.640;8.894;2023-12-07T05:34:20;96490.00;;;0.90;98.31
3960;BME280;1994;48.640;8.894;2023-12-07T05:36:46;96494.28;;;0.90;98.26
3960;BME280;1994;48.640;8.894;2023-12-07T05:39:12;96487.16;;;0.85;98.28
3960;BME280;1994;48.640;8.894;2023-12-07T05:41:38;96489.50;;;0.87;98.30
3960;BME280;1994;48.640;8.894;2023-12-07T05:44:04;96487.91;;;0.86;98.05
3960;BME280;1994;48.640;8.894;2023-12-07T05:46:31;96491.94;;;0.80;97.77
3960;BME280;1994;48.640;8.894;2023-12-07T05:48:57;96487.00;;;0.79;97.94
3960;BME280;1994;48.640;8.894;2023-12-07T05:51:23;96485.06;;;0.81;98.08
3960;BME280;1994;48.640;8.894;2023-12-07T05:53:50;96490.16;;;0.81;97.89
3960;BME280;1994;48.640;8.894;2023-12-07T05:56:19;96485.25;;;0.79;97.88
3960;BME280;1994;48.640;8.894;2023-12-07T05:58:48;96483.47;;;0.80;98.08
3960;BME280;1994;48.640;8.894;2023-12-07T06:01:17;96483.84;;;0.77;98.10
3960;BME280;1994;48.640;8.894;2023-12-07T06:03:43;96484.16;;;0.74;98.19
3960;BME280;1994;48.640;8.894;2023-12-07T06:06:11;96484.50;;;0.71;98.41
3960;BME280;1994;48.640;8.894;2023-12-07T06:08:40;96474.59;;;0.68;98.53
3960;BME280;1994;48.640;8.894;2023-12-07T06:11:06;96477.78;;;0.70;98.59
3960;BME280;1994;48.640;8.894;2023-12-07T06:13:32;96479.25;;;0.64;98.80
3960;BME280;1994;48.640;8.894;2023-12-07T06:15:58;96479.69;;;0.68;98.75
3960;BME280;1994;48.640;8.894;2023-12-07T06:18:23;96476.19;;;0.69;98.52
3960;BME280;1994;48.640;8.894;2023-12-07T06:20:50;96486.72;;;0.66;98.49
3960;BME280;1994;48.640;8.894;2023-12-07T06:23:16;96485.47;;;0.62;98.44
3960;BME280;1994;48.640;8.894;2023-12-07T06:25:41;96486.41;;;0.61;98.79
3960;BME280;1994;48.640;8.894;2023-12-07T06:28:07;96484.66;;;0.61;98.63
3960;BME280;1994;48.640;8.894;2023-12-07T06:30:33;96484.19;;;0.58;98.75
3960;BME280;1994;48.640;8.894;2023-12-07T06:33:00;96490.88;;;0.59;98.91
3960;BME280;1994;48.640;8.894;2023-12-07T06:35:26;96484.53;;;0.55;98.81
3960;BME280;1994;48.640;8.894;2023-12-07T06:37:51;96491.53;;;0.53;98.85
3960;BME280;1994;48.640;8.894;2023-12-07T06:40:17;96489.63;;;0.55;98.99
3960;BME280;1994;48.640;8.894;2023-12-07T06:42:43;96485.47;;;0.54;98.96
3960;BME280;1994;48.640;8.894;2023-12-07T06:45:09;96489.28;;;0.58;99.18
3960;BME280;1994;48.640;8.894;2023-12-07T06:47:39;96483.88;;;0.61;98.98
3960;BME280;1994;48.640;8.894;2023-12-07T06:50:05;96485.47;;;0.62;98.79
3960;BME280;1994;48.640;8.894;2023-12-07T06:52:36;96485.47;;;0.62;98.72
3960;BME280;1994;48.640;8.894;2023-12-07T06:55:02;96489.94;;;0.60;98.58
3960;BME280;1994;48.640;8.894;2023-12-07T06:57:28;96488.66;;;0.56;98.70
3960;BME280;1994;48.640;8.894;2023-12-07T06:59:53;96487.69;;;0.57;98.53
3960;BME280;1994;48.640;8.894;2023-12-07T07:02:19;96494.38;;;0.58;98.52
3960;BME280;1994;48.640;8.894;2023-12-07T07:04:45;96499.47;;;0.58;98.48
3960;BME280;1994;48.640;8.894;2023-12-07T07:07:11;96490.88;;;0.59;98.58
3960;BME280;1994;48.640;8.894;2023-12-07T07:09:36;96491.88;;;0.50;98.35
3960;BME280;1994;48.640;8.894;2023-12-07T07:12:02;96493.59;;;0.57;98.78
3960;BME280;1994;48.640;8.894;2023-12-07T07:14:28;96489.94;;;0.52;98.58
3960;BME280;1994;48.640;8.894;2023-12-07T07:16:54;96493.91;;;0.54;99.05
3960;BME280;1994;48.640;8.894;2023-12-07T07:19:19;96495.03;;;0.52;98.82
3960;BME280;1994;48.640;8.894;2023-12-07T07:21:45;96490.25;;;0.49;98.55
3960;BME280;1994;48.640;8.894;2023-12-07T07:24:11;96487.88;;;0.47;98.67
3960;BME280;1994;48.640;8.894;2023-12-07T07:26:37;96486.44;;;0.53;98.51
3960;BME280;1994;48.640;8.894;2023-12-07T07:29:04;96485.81;;;0.51;98.44
3960;BME280;1994;48.640;8.894;2023-12-07T07:31:30;96489.97;;;0.36;98.76
3960;BME280;1994;48.640;8.894;2023-12-07T07:33:55;96498.53;;;0.43;98.98
3960;BME280;1994;48.640;8.894;2023-12-07T07:36:21;96497.91;;;0.41;99.24
3960;BME280;1994;48.640;8.894;2023-12-07T07:38:47;96500.50;;;0.33;100.00
3960;BME280;1994;48.640;8.894;2023-12-07T07:41:14;96501.44;;;0.40;100.00
3960;BME280;1994;48.640;8.894;2023-12-07T07:43:40;96497.56;;;0.52;99.92
3960;BME280;1994;48.640;8.894;2023-12-07T07:46:06;96493.25;;;0.60;100.00
3960;BME280;1994;48.640;8.894;2023-12-07T07:48:32;96497.84;;;0.65;99.74
3960;BME280;1994;48.640;8.894;2023-12-07T07:50:58;96499.91;;;0.77;99.95
3960;BME280;1994;48.640;8.894;2023-12-07T07:53:24;96500.25;;;1.13;99.73
3960;BME280;1994;48.640;8.894;2023-12-07T07:55:50;96505.88;;;1.39;98.40
3960;BME280;1994;48.640;8.894;2023-12-07T07:58:15;96503.44;;;1.76;97.35
3960;BME280;1994;48.640;8.894;2023-12-07T08:00:41;96502.59;;;2.20;95.28
3960;BME280;1994;48.640;8.894;2023-12-07T08:03:07;96505.16;;;2.57;93.03
3960;BME280;1994;48.640;8.894;2023-12-07T08:05:33;96503.34;;;2.95;90.58
3960;BME280;1994;48.640;8.894;2023-12-07T08:07:59;96496.44;;;2.81;89.39
3960;BME280;1994;48.640;8.894;2023-12-07T08:10:24;96500.25;;;2.99;88.39
3960;BME280;1994;48.640;8.894;2023-12-07T08:12:50;96496.59;;;2.94;88.40
3960;BME280;1994;48.640;8.894;2023-12-07T08:15:16;96496.09;;;2.98;88.18
3960;BME280;1994;48.640;8.894;2023-12-07T08:17:42;96502.88;;;3.20;87.08
3960;BME280;1994;48.640;8.894;2023-12-07T08:20:09;96492.94;;;3.46;85.57
3960;BME280;1994;48.640;8.894;2023-12-07T08:22:40;96500.59;;;3.61;85.73
3960;BME280;1994;48.640;8.894;2023-12-07T08:25:10;96509.66;;;3.99;83.66
3960;BME280;1994;48.640;8.894;2023-12-07T08:27:39;96509.16;;;4.31;81.67
3960;BME280;1994;48.640;8.894;2023-12-07T08:30:06;96522.28;;;4.70;78.83
3960;BME280;1994;48.640;8.894;2023-12-07T08:32:35;96517.50;;;5.01;79.29
3960;BME280;1994;48.640;8.894;2023-12-07T08:35:00;96512.19;;;4.96;77.91
3960;BME280;1994;48.640;8.894;2023-12-07T08:37:26;96510.13;;;5.19;77.20
3960;BME280;1994;48.640;8.894;2023-12-07T08:39:52;96509.75;;;5.28;75.92
3960;BME280;1994;48.640;8.894;2023-12-07T08:42:17;96499.63;;;5.14;76.64
3960;BME280;1994;48.640;8.894;2023-12-07T08:44:43;96499.66;;;5.74;75.90
3960;BME280;1994;48.640;8.894;2023-12-07T08:47:10;96489.09;;;6.29;73.72
3960;BME280;1994;48.640;8.894;2023-12-07T08:49:36;96485.88;;;6.79;72.10
3960;BME280;1994;48.640;8.894;2023-12-07T08:52:02;96477.22;;;7.24;69.48
3960;BME280;1994;48.640;8.894;2023-12-07T08:54:28;96483.53;;;7.78;67.06
3960;BME280;1994;48.640;8.894;2023-12-07T08:56:53;96482.66;;;8.53;64.25
3960;BME280;1994;48.640;8.894;2023-12-07T08:59:19;96480.28;;;8.94;63.50
3960;BME280;1994;48.640;8.894;2023-12-07T09:01:45;96481.75;;;8.10;63.92
3960;BME280;1994;48.640;8.894;2023-12-07T09:04:10;96482.59;;;8.04;64.22
3960;BME280;1994;48.640;8.894;2023-12-07T09:06:37;96485.28;;;8.46;63.36
3960;BME280;1994;48.640;8.894;2023-12-07T09:09:04;96489.50;;;9.26;61.03
3960;BME280;1994;48.640;8.894;2023-12-07T09:11:32;96495.06;;;9.59;60.09
3960;BME280;1994;48.640;8.894;2023-12-07T09:13:58;96491.63;;;9.47;59.34
3960;BME280;1994;48.640;8.894;2023-12-07T09:16:24;96489.03;;;9.65;59.64
3960;BME280;1994;48.640;8.894;2023-12-07T09:18:51;96486.19;;;9.01;59.80
3960;BME280;1994;48.640;8.894;2023-12-07T09:21:17;96470.84;;;8.63;61.56
3960;BME280;1994;48.640;8.894;2023-12-07T09:23:43;96479.72;;;9.10;61.40
3960;BME280;1994;48.640;8.894;2023-12-07T09:26:08;96470.63;;;8.65;61.28
3960;BME280;1994;48.640;8.894;2023-12-07T09:28:34;96471.63;;;8.64;60.79
3960;BME280;1994;48.640;8.894;2023-12-07T09:31:00;96478.00;;;7.75;63.16
3960;BME280;1994;48.640;8.894;2023-12-07T09:33:26;96475.41;;;8.06;62.85
3960;BME280;1994;48.640;8.894;2023-12-07T09:35:52;96468.19;;;8.70;61.21
3960;BME280;1994;48.640;8.894;2023-12-07T09:38:18;96469.25;;;8.38;62.93
3960;BME280;1994;48.640;8.894;2023-12-07T09:40:45;96468.75;;;9.62;59.64
3960;BME280;1994;48.640;8.894;2023-12-07T09:43:11;96463.03;;;9.42;59.07
3960;BME280;1994;48.640;8.894;2023-12-07T09:45:37;96466.03;;;9.57;57.57
3960;BME280;1994;48.640;8.894;2023-12-07T09:48:04;96470.78;;;9.60;56.32
3960;BME280;1994;48.640;8.894;2023-12-07T09:50:30;96464.06;;;9.23;57.17
3960;BME280;1994;48.640;8.894;2023-12-07T09:52:58;96463.63;;;8.90;58.80
3960;BME280;1994;48.640;8.894;2023-12-07T09:55:24;96459.72;;;9.53;56.30
3960;BME280;1994;48.640;8.894;2023-12-07T09:57:51;96453.16;;;9.68;57.20
3960;BME280;1994;48.640;8.894;2023-12-07T10:00:17;96448.88;;;10.44;55.21
3960;BME280;1994;48.640;8.894;2023-12-07T10:02:45;96451.56;;;10.95;52.38
3960;BME280;1994;48.640;8.894;2023-12-07T10:05:13;96444.50;;;10.68;51.71
3960;BME280;1994;48.640;8.894;2023-12-07T10:07:44;96442.44;;;10.93;51.72
3960;BME280;1994;48.640;8.894;2023-12-07T10:10:12;96438.97;;;11.27;51.96
3960;BME280;1994;48.640;8.894;2023-12-07T10:12:46;96441.56;;;10.76;51.91
3960;BME280;1994;48.640;8.894;2023-12-07T10:15:16;96446.72;;;10.76;52.74
3960;BME280;1994;48.640;8.894;2023-12-07T10:17:54;96437.81;;;9.55;52.81
3960;BME280;1994;48.640;8.894;2023-12-07T10:20:22;96427.38;;;9.91;53.60
3960;BME280;1994;48.640;8.894;2023-12-07T10:25:26;96423.09;;;9.56;55.25
3960;BME280;1994;48.640;8.894;2023-12-07T10:27:52;96416.41;;;9.78;55.45
3960;BME280;1994;48.640;8.894;2023-12-07T10:30:18;96418.00;;;10.77;53.94
3960;BME280;1994;48.640;8.894;2023-12-07T10:32:50;96417.97;;;11.00;52.96
3960;BME280;1994;48.640;8.894;2023-12-07T10:35:17;96426.00;;;11.78;50.52
3960;BME280;1994;48.640;8.894;2023-12-07T10:37:43;96419.47;;;11.92;48.41
3960;BME280;1994;48.640;8.894;2023-12-07T10:40:10;96417.13;;;11.62;48.84
3960;BME280;1994;48.640;8.894;2023-12-07T10:42:36;96424.47;;;11.54;48.99
3960;BME280;1994;48.640;8.894;2023-12-07T10:45:06;96412.50;;;11.25;49.55
3960;BME280;1994;48.640;8.894;2023-12-07T10:47:38;96402.47;;;10.66;51.54
3960;BME280;1994;48.640;8.894;2023-12-07T10:50:08;96406.44;;;11.19;49.69
3960;BME280;1994;48.640;8.894;2023-12-07T10:52:54;96398.56;;;10.52;51.43
3960;BME280;1994;48.640;8.894;2023-12-07T10:55:29;96388.16;;;10.29;52.39
3960;BME280;1994;48.640;8.894;2023-12-07T10:57:57;96383.03;;;10.91;50.84
3960;BME280;1994;48.640;8.894;2023-12-07T11:00:25;96379.00;;;11.35;50.45
3960;BME280;1994;48.640;8.894;2023-12-07T11:02:53;96375.16;;;11.65;49.29
3960;BME280;1994;48.640;8.894;2023-12-07T11:05:20;96376.13;;;12.09;47.49
3960;BME280;1994;48.640;8.894;2023-12-07T11:08:04;96373.88;;;12.12;46.85
3960;BME280;1994;48.640;8.894;2023-12-07T11:10:43;96365.59;;;12.32;47.42
3960;BME280;1994;48.640;8.894;2023-12-07T11:13:35;96364.13;;;12.57;47.11
3960;BME280;1994;48.640;8.894;2023-12-07T11:16:03;96355.34;;;11.76;47.56
3960;BME280;1994;48.640;8.894;2023-12-07T11:18:29;96352.38;;;11.84;48.01
3960;BME280;1994;48.640;8.894;2023-12-07T11:20:56;96350.97;;;11.93;47.68
3960;BME280;1994;48.640;8.894;2023-12-07T11:23:22;96353.38;;;12.70;46.02
3960;BME280;1994;48.640;8.894;2023-12-07T11:25:49;96343.72;;;12.28;46.89
3960;BME280;1994;48.640;8.894;2023-12-07T11:28:16;96337.91;;;12.21;46.96
3960;BME280;1994;48.640;8.894;2023-12-07T11:30:46;96335.94;;;12.66;45.90
3960;BME280;1994;48.640;8.894;2023-12-07T11:33:14;96333.91;;;12.51;46.65
3960;BME280;1994;48.640;8.894;2023-12-07T11:36:03;96323.41;;;12.25;47.21
3960;BME280;1994;48.640;8.894;2023-12-07T11:38:30;96319.59;;;12.49;46.02
3960;BME280;1994;48.640;8.894;2023-12-07T11:40:56;96316.16;;;12.65;45.75
3960;BME280;1994;48.640;8.894;2023-12-07T11:46:09;96306.81;;;11.32;47.46
3960;BME280;1994;48.640;8.894;2023-12-07T11:48:36;96303.00;;;10.67;51.08
3960;BME280;1994;48.640;8.894;2023-12-07T11:51:07;96295.50;;;10.54;50.79
3960;BME280;1994;48.640;8.894;2023-12-07T11:53:37;96292.72;;;9.98;52.65
3960;BME280;1994;48.640;8.894;2023-12-07T11:56:07;96294.03;;;9.13;53.03
3960;BME280;1994;48.640;8.894;2023-12-07T11:58:36;96293.19;;;8.72;55.83
3960;BME280;1994;48.640;8.894;2023-12-07T12:01:03;96296.34;;;8.20;56.35
3960;BME280;1994;48.640;8.894;2023-12-07T12:03:31;96292.72;;;7.78;58.74
3960;BME280;1994;48.640;8.894;2023-12-07T12:06:03;96286.69;;;7.66;59.20
3960;BME280;1994;48.640;8.894;2023-12-07T12:08:29;96287.81;;;7.95;59.24
3960;BME280;1994;48.640;8.894;2023-12-07T12:10:54;96284.75;;;8.29;59.08
3960;BME280;1994;48.640;8.894;2023-12-07T12:13:35;96271.69;;;8.24;58.13
3960;BME280;1994;48.640;8.894;2023-12-07T12:16:02;96267.50;;;8.59;58.87
3960;BME280;1994;48.640;8.894;2023-12-07T12:18:28;96263.09;;;8.77;57.21
3960;BME280;1994;48.640;8.894;2023-12-07T12:20:54;96260.72;;;8.76;57.50
3960;BME280;1994;48.640;8.894;2023-12-07T12:23:20;96254.13;;;8.80;57.29
3960;BME280;1994;48.640;8.894;2023-12-07T12:25:47;96242.06;;;8.44;57.43
3960;BME280;1994;48.640;8.894;2023-12-07T12:28:19;96228.06;;;7.98;58.02
3960;BME280;1994;48.640;8.894;2023-12-07T12:30:47;96228.78;;;7.87;55.75
3960;BME280;1994;48.640;8.894;2023-12-07T12:33:13;96229.06;;;7.79;53.37
3960;BME280;1994;48.640;8.894;2023-12-07T12:35:39;96220.75;;;7.77;52.91
3960;BME280;1994;48.640;8.894;2023-12-07T12:38:12;96218.91;;;8.02;51.55
3960;BME280;1994;48.640;8.894;2023-12-07T12:40:38;96222.06;;;7.86;51.63
3960;BME280;1994;48.640;8.894;2023-12-07T12:43:04;96217.19;;;7.96;51.17
3960;BME280;1994;48.640;8.894;2023-12-07T12:45:30;96226.72;;;7.95;51.82
3960;BME280;1994;48.640;8.894;2023-12-07T12:47:58;96227.28;;;7.79;50.51
3960;BME280;1994;48.640;8.894;2023-12-07T12:50:41;96224.94;;;8.14;50.83
3960;BME280;1994;48.640;8.894;2023-12-07T12:53:09;96214.75;;;8.19;49.75
3960;BME280;1994;48.640;8.894;2023-12-07T12:55:37;96210.59;;;7.82;50.36
3960;BME280;1994;48.640;8.894;2023-12-07T12:58:06;96201.97;;;7.52;50.72
3960;BME280;1994;48.640;8.894;2023-12-07T13:00:32;96206.59;;;7.43;51.91
3960;BME280;1994;48.640;8.894;2023-12-07T13:03:03;96208.56;;;7.41;53.59
3960;BME280;1994;48.640;8.894;2023-12-07T13:05:29;96203.19;;;7.25;53.19
3960;BME280;1994;48.640;8.894;2023-12-07T13:07:54;96200.19;;;7.46;53.33
3960;BME280;1994;48.640;8.894;2023-12-07T13:10:20;96193.13;;;7.41;51.80
3960;BME280;1994;48.640;8.894;2023-12-07T13:12:46;96203.47;;;7.35;53.00
3960;BME280;1994;48.640;8.894;2023-12-07T13:15:13;96196.03;;;7.27;51.94
3960;BME280;1994;48.640;8.894;2023-12-07T13:17:40;96198.22;;;6.99;52.66
3960;BME280;1994;48.640;8.894;2023-12-07T13:20:07;96201.03;;;6.91;53.37
3960;BME280;1994;48.640;8.894;2023-12-07T13:22:41;96198.25;;;6.92;53.61
3960;BME280;1994;48.640;8.894;2023-12-07T13:25:09;96202.94;;;7.02;53.52
3960;BME280;1994;48.640;8.894;2023-12-07T13:27:36;96201.84;;;6.91;58.57
3960;BME280;1994;48.640;8.894;2023-12-07T13:30:05;96216.16;;;6.81;54.60
3960;BME280;1994;48.640;8.894;2023-12-07T13:32:36;96217.63;;;6.64;54.31
3960;BME280;1994;48.640;8.894;2023-12-07T13:35:05;96211.25;;;6.73;56.83
3960;BME280;1994;48.640;8.894;2023-12-07T13:37:32;96197.97;;;6.76;56.00
3960;BME280;1994;48.640;8.894;2023-12-07T13:40:00;96189.19;;;6.83;54.22